»·PEaware :: UAL393 KSJC-KPDX

UAL393 :: KSJC-KPDX

FLIGHT INFORMATION

Flight Status: Arrived
Operator:
United Airlines
More flights by this operator :: More flights under this callsign
Pilot: Jamie M. (16133)
Aircraft: BOEING 737-200
(B732)
More flights by this aircraft type
Origin: KSJC Mineta San Jose Intl
United States
Destination: KPDX Portland Intl
United States
More flights between these airports :: More routes between these airports
Route: +LOUPE4 BMRNG SAC J65 RBL J1 OED OCITY2
File this flight plan on PilotEdge
Remarks:
Altitude:
(Current/Filed)
30,000ft
Speed:
(Current/Filed)
450kts
Departed: 24-Sep-18 03:04 PM
Arrived: 24-Sep-18 04:51 PM
Distance/Time
Traveled:
495nm/1:47
Distance/Time
To Go:
Arrived

Flight Plot

Page will automatically refresh every two minutes.

Flight plan parsing failed; only flown route is shown


Map Options




Map Legend


Flown Route
Filed Route
Departure Airport
Arrival Airport
Navaid (VOR, NDB)
Fix

Horizontal Profiles

Position Reports

Time Latitude Longitude Heading Altitude Ground
Speed
24-Sep-18 14:42 37.369116 -121.930243 48 52ft 0kts
24-Sep-18 14:43 37.369116 -121.930243 48 52ft 0kts
24-Sep-18 14:44 37.369116 -121.930243 48 52ft 0kts
24-Sep-18 14:45 37.369116 -121.930243 48 52ft 0kts
24-Sep-18 14:46 37.369116 -121.930243 48 52ft 0kts
24-Sep-18 14:47 37.369116 -121.930243 48 52ft 0kts
24-Sep-18 14:48 37.369116 -121.930243 48 52ft 0kts
24-Sep-18 14:49 37.369116 -121.930243 48 52ft 0kts
24-Sep-18 14:50 37.369116 -121.930243 48 52ft 0kts
24-Sep-18 14:51 37.369116 -121.930243 48 52ft 0kts
24-Sep-18 14:52 37.369118 -121.930239 48 52ft 0kts
24-Sep-18 14:53 37.369118 -121.930239 48 52ft 0kts
24-Sep-18 14:54 37.369118 -121.930239 48 52ft 0kts
24-Sep-18 14:55 37.368980 -121.930738 94 52ft 2kts
24-Sep-18 14:56 37.369182 -121.931225 140 52ft 0kts
24-Sep-18 14:57 37.369182 -121.931224 140 52ft 0kts
24-Sep-18 14:58 37.369182 -121.931224 140 52ft 0kts
24-Sep-18 14:59 37.367916 -121.929807 140 52ft 10kts
24-Sep-18 15:00 37.365642 -121.927296 137 52ft 13kts
24-Sep-18 15:01 37.362686 -121.924102 139 52ft 17kts
24-Sep-18 15:02 37.359186 -121.920263 139 52ft 18kts
24-Sep-18 15:03 37.355656 -121.916386 138 52ft 19kts
24-Sep-18 15:04 37.353006 -121.914528 229 52ft 0kts
24-Sep-18 15:05 37.352487 -121.915364 260 52ft 7kts
24-Sep-18 15:06 37.364467 -121.928588 319 171ft 166kts
24-Sep-18 15:07 37.403535 -121.964070 334 2980ft 214kts
24-Sep-18 15:08 37.446111 -121.925475 93 5528ft 258kts
24-Sep-18 15:09 37.403240 -121.855494 136 8132ft 284kts
24-Sep-18 15:10 37.344914 -121.788661 151 10574ft 308kts
24-Sep-18 15:11 37.268023 -121.819874 241 12296ft 342kts
24-Sep-18 15:12 37.288605 -121.924130 325 14578ft 355kts
24-Sep-18 15:13 37.379041 -121.943981 354 16554ft 365kts
24-Sep-18 15:14 37.464531 -121.955522 351 18172ft 373kts
24-Sep-18 15:15 37.565259 -121.966410 358 19814ft 383kts
24-Sep-18 15:16 37.670681 -121.965089 11 21412ft 393kts
24-Sep-18 15:17 37.771752 -121.916677 20 22731ft 406kts
24-Sep-18 15:18 37.873604 -121.865245 22 24031ft 413kts
24-Sep-18 15:19 37.975550 -121.812604 21 25164ft 419kts
24-Sep-18 15:20 38.079848 -121.756474 22 26196ft 425kts
24-Sep-18 15:21 38.161782 -121.711518 22 26886ft 430kts
24-Sep-18 15:22 38.267583 -121.652692 21 27153ft 447kts
24-Sep-18 15:23 38.374261 -121.598285 20 27845ft 451kts
24-Sep-18 15:24 38.459522 -121.556861 10 28324ft 452kts
24-Sep-18 15:25 38.582769 -121.603936 331 29119ft 448kts
24-Sep-18 15:26 38.674739 -121.651115 342 29547ft 451kts
24-Sep-18 15:27 38.792811 -121.698990 341 29898ft 456kts
24-Sep-18 15:28 38.930322 -121.756738 342 29901ft 460kts
24-Sep-18 15:29 39.025490 -121.796743 341 29907ft 461kts
24-Sep-18 15:30 39.128259 -121.840111 341 29910ft 461kts
24-Sep-18 15:31 39.259686 -121.896755 338 29912ft 456kts
24-Sep-18 15:32 39.357644 -121.940950 341 29922ft 450kts
24-Sep-18 15:33 39.469632 -121.986157 342 29913ft 445kts
24-Sep-18 15:34 39.585834 -122.032122 342 29907ft 442kts
24-Sep-18 15:35 39.702051 -122.078110 342 29907ft 441kts
24-Sep-18 15:36 39.817904 -122.124078 342 29906ft 441kts
24-Sep-18 15:37 39.934074 -122.170347 342 29910ft 440kts
24-Sep-18 15:38 40.050093 -122.216766 342 29914ft 439kts
24-Sep-18 15:39 40.159954 -122.254745 348 29923ft 439kts
24-Sep-18 15:40 40.277901 -122.286072 347 29918ft 440kts
24-Sep-18 15:41 40.397097 -122.319307 347 29917ft 440kts
24-Sep-18 15:42 40.516347 -122.353179 347 29916ft 440kts
24-Sep-18 15:43 40.635738 -122.386841 347 29916ft 440kts
24-Sep-18 15:44 40.754635 -122.420850 347 29915ft 440kts
24-Sep-18 15:45 40.874267 -122.454692 347 29915ft 440kts
24-Sep-18 15:46 40.993104 -122.488894 347 29923ft 439kts
24-Sep-18 15:47 41.103227 -122.520534 349 29991ft 436kts
24-Sep-18 15:48 41.212842 -122.551586 349 30080ft 434kts
24-Sep-18 15:49 41.315478 -122.581324 349 30119ft 433kts
24-Sep-18 15:50 41.429829 -122.615791 348 30119ft 433kts
24-Sep-18 15:51 41.546660 -122.648532 352 30119ft 432kts
24-Sep-18 15:52 41.658225 -122.672337 351 30117ft 432kts
24-Sep-18 15:53 41.776009 -122.697980 351 30116ft 432kts
24-Sep-18 15:54 41.892093 -122.723776 351 30115ft 432kts
24-Sep-18 15:55 42.009441 -122.750427 351 30114ft 432kts
24-Sep-18 15:56 42.119958 -122.776057 350 30121ft 432kts
24-Sep-18 15:57 42.209503 -122.827943 332 30121ft 436kts
24-Sep-18 15:58 42.305127 -122.865738 350 30120ft 432kts
24-Sep-18 15:59 42.419521 -122.896256 349 30120ft 433kts
24-Sep-18 16:00 42.536186 -122.917673 360 30123ft 432kts
24-Sep-18 16:01 42.650575 -122.913573 4 29691ft 425kts
24-Sep-18 16:02 42.764421 -122.900347 5 28616ft 421kts
24-Sep-18 16:03 42.876764 -122.882600 7 27428ft 414kts
24-Sep-18 16:04 42.985359 -122.864883 7 26359ft 400kts
24-Sep-18 16:05 43.088690 -122.855017 3 25212ft 390kts
24-Sep-18 16:06 43.190047 -122.846036 4 24638ft 394kts
24-Sep-18 16:07 43.285892 -122.837015 4 24463ft 384kts
24-Sep-18 16:08 43.374478 -122.828549 4 24163ft 352kts
24-Sep-18 16:09 43.434928 -122.822742 4 24163ft 328kts
24-Sep-18 16:10 43.498462 -122.816579 5 24163ft 304kts
24-Sep-18 16:11 43.561644 -122.809803 5 24187ft 292kts
24-Sep-18 16:12 43.623929 -122.811215 7 24210ft 332kts
24-Sep-18 16:13 43.693384 -122.793960 7 24238ft 366kts
24-Sep-18 16:14 43.769456 -122.782477 5 24233ft 391kts
24-Sep-18 16:15 43.852636 -122.773350 4 24230ft 411kts
24-Sep-18 16:16 43.934869 -122.765348 4 24228ft 426kts
24-Sep-18 16:17 44.015716 -122.757754 4 24227ft 437kts
24-Sep-18 16:18 44.100095 -122.749894 4 24267ft 444kts
24-Sep-18 16:19 44.192510 -122.741421 4 24193ft 385kts
24-Sep-18 16:20 44.267194 -122.734472 4 22524ft 380kts
24-Sep-18 16:21 44.337351 -122.727902 4 21262ft 373kts
24-Sep-18 16:22 44.424339 -122.719717 4 19605ft 366kts
24-Sep-18 16:23 44.494484 -122.713109 4 18740ft 362kts
24-Sep-18 16:24 44.562216 -122.706711 5 17945ft 359kts
24-Sep-18 16:25 44.621773 -122.701062 5 17374ft 358kts
24-Sep-18 16:26 44.694178 -122.694193 5 16944ft 350kts
24-Sep-18 16:27 44.765266 -122.687443 5 16540ft 325kts
24-Sep-18 16:28 44.828806 -122.681382 5 15543ft 308kts
24-Sep-18 16:29 44.888628 -122.675660 5 14029ft 290kts
24-Sep-18 16:30 44.945621 -122.670170 5 12041ft 282kts
24-Sep-18 16:31 45.003864 -122.663516 16 12006ft 287kts
24-Sep-18 16:32 45.062877 -122.625601 25 11979ft 270kts
24-Sep-18 16:33 45.117020 -122.587786 25 11157ft 263kts
24-Sep-18 16:34 45.171731 -122.548882 25 10208ft 254kts
24-Sep-18 16:35 45.214568 -122.518645 25 9193ft 252kts
24-Sep-18 16:36 45.256295 -122.489216 25 8597ft 239kts
24-Sep-18 16:37 45.304058 -122.455400 25 7655ft 237kts
24-Sep-18 16:38 45.333112 -122.434735 25 7202ft 232kts
24-Sep-18 16:39 45.374464 -122.405318 25 6442ft 227kts
24-Sep-18 16:40 45.414067 -122.377249 25 5608ft 205kts
24-Sep-18 16:41 45.447405 -122.353618 25 4993ft 177kts
24-Sep-18 16:42 45.477347 -122.339367 341 4250ft 174kts
24-Sep-18 16:43 45.500559 -122.360111 320 3430ft 175kts
24-Sep-18 16:44 45.513714 -122.388465 300 2834ft 169kts
24-Sep-18 16:45 45.526112 -122.419730 299 2370ft 157kts
24-Sep-18 16:46 45.536551 -122.446319 299 1979ft 144kts
24-Sep-18 16:47 45.546436 -122.471576 300 1610ft 135kts
24-Sep-18 16:48 45.554926 -122.493292 300 1245ft 128kts
24-Sep-18 16:49 45.564426 -122.517771 299 894ft 127kts
24-Sep-18 16:50 45.575252 -122.545805 302 362ft 133kts
24-Sep-18 16:51 45.585418 -122.571706 299 39ft 122kts
24-Sep-18 16:52 45.592050 -122.589686 274 38ft 45kts
24-Sep-18 16:53 45.592066 -122.591467 270 38ft 0kts
24-Sep-18 16:54 45.592067 -122.591466 271 38ft 0kts
24-Sep-18 16:55 45.592072 -122.591823 271 38ft 6kts

Navigation Log

Ident Type
Flight plan parsing failed, navigation log unavailable